Time;durP1;ratioP1;P1;durP2;ratioP2;P2;SDS_P1;SDS_P2;PMS_P1;PMS_P2;Temp;Humidity;BMP_temperature;BMP_pressure;BME280_temperature;BME280_humidity;BME280_pressure;Samples;Min_cycle;Max_cycle;Signal;HPM_P1;HPM_P2
2023/07/16 00:02:26;;;;;;;10.88;4.33;;;;;;;24.96;45.00;100170.89;1703288;84;21360;-79
2023/07/16 00:05:31;;;;;;;12.68;3.90;;;;;;;24.68;45.63;100176.37;1704575;84;21332;-80
2023/07/16 00:08:36;;;;;;;5.92;3.67;;;;;;;24.58;46.03;100169.34;1704583;84;21333;-80
2023/07/16 00:11:42;;;;;;;7.28;3.37;;;;;;;24.59;46.14;100171.85;1703851;84;21353;-80
2023/07/16 00:14:48;;;;;;;7.67;4.47;;;;;;;24.68;46.01;100176.37;1704553;84;21317;-80
2023/07/16 00:17:55;;;;;;;9.05;3.98;;;;;;;24.77;45.83;100174.73;1705173;83;21353;-80
2023/07/16 00:21:02;;;;;;;10.95;4.35;;;;;;;24.68;45.99;100172.17;1733816;83;21884;-80
2023/07/16 00:24:08;;;;;;;14.45;4.25;;;;;;;24.65;46.08;100173.55;1733800;83;21317;-79
2023/07/16 00:27:13;;;;;;;13.32;3.80;;;;;;;24.42;46.60;100175.42;1733727;82;21314;-80
2023/07/16 00:30:20;;;;;;;12.85;4.28;;;;;;;24.53;46.43;100170.72;1733804;83;21310;-80
2023/07/16 00:33:26;;;;;;;5.92;3.65;;;;;;;24.63;46.25;100170.20;1733846;83;21302;-80
2023/07/16 00:36:32;;;;;;;7.47;3.58;;;;;;;24.73;46.02;100171.63;1734138;81;21989;-80
2023/07/16 00:39:38;;;;;;;8.30;3.58;;;;;;;24.78;46.00;100173.61;1733872;83;21329;-80
2023/07/16 00:42:44;;;;;;;11.97;3.47;;;;;;;24.76;45.97;100179.22;1733079;83;21337;-80
2023/07/16 00:45:50;;;;;;;8.33;3.85;;;;;;;24.64;46.27;100171.88;1733995;83;21286;-79
2023/07/16 00:48:57;;;;;;;9.43;3.95;;;;;;;24.53;46.55;100175.75;1732547;83;21338;-80
2023/07/16 00:52:02;;;;;;;9.90;3.92;;;;;;;24.51;46.55;100172.36;1733790;82;21349;-79
2023/07/16 00:55:07;;;;;;;8.85;3.70;;;;;;;23.92;47.94;100176.72;1732422;83;21319;-80
2023/07/16 00:58:15;;;;;;;13.78;4.03;;;;;;;24.12;47.73;100176.02;1733831;83;21317;-80
2023/07/16 01:01:21;;;;;;;7.50;4.22;;;;;;;24.19;47.52;100169.09;1733884;83;21306;-79
2023/07/16 01:04:18;;;;;;;7.25;3.55;;;;;;;24.28;47.38;100175.55;1732787;82;21211;-79
2023/07/16 01:07:24;;;;;;;10.13;3.95;;;;;;;23.98;48.03;100171.45;1733818;83;21314;-79
2023/07/16 01:10:32;;;;;;;9.90;3.70;;;;;;;24.06;47.92;100168.72;1733733;82;21313;-79
2023/07/16 01:13:39;;;;;;;11.28;4.40;;;;;;;24.00;48.16;100172.60;1732830;83;21919;-80
2023/07/16 01:16:45;;;;;;;9.58;3.90;;;;;;;24.11;47.93;100177.98;1733892;83;21310;-80
2023/07/16 01:19:51;;;;;;;8.70;4.17;;;;;;;23.97;48.22;100177.59;1733466;83;21345;-80
2023/07/16 01:23:30;;;;;;;7.30;4.45;;;;;;;23.94;48.31;100172.53;1733090;83;21376;-80
2023/07/16 01:27:14;;;;;;;12.70;4.42;;;;;;;24.03;48.27;100174.84;1668976;83;21884;-80
2023/07/16 01:30:22;;;;;;;9.38;4.22;;;;;;;23.70;49.00;100178.21;1733656;83;21872;-81
2023/07/16 01:33:27;;;;;;;5.15;3.65;;;;;;;23.83;48.80;100182.52;1733539;83;21346;-81
2023/07/16 01:36:34;;;;;;;7.03;4.20;;;;;;;23.70;49.23;100175.42;1732348;83;21345;-81
2023/07/16 01:39:40;;;;;;;8.10;4.17;;;;;;;24.06;48.67;100184.93;1740940;82;21210;-80
2023/07/16 01:42:46;;;;;;;7.42;4.37;;;;;;;24.16;48.28;100178.01;1742304;82;21333;-80
2023/07/16 01:45:52;;;;;;;15.72;4.40;;;;;;;23.83;48.88;100169.39;1742719;82;21313;-80
2023/07/16 01:48:59;;;;;;;13.93;4.47;;;;;;;23.77;49.19;100173.81;1742432;82;21870;-80
2023/07/16 01:52:04;;;;;;;11.50;4.40;;;;;;;23.91;48.89;100180.08;1716594;83;21309;-80
2023/07/16 01:55:09;;;;;;;7.20;4.08;;;;;;;23.90;48.87;100183.98;1729346;83;21887;-81
2023/07/16 01:58:15;;;;;;;15.58;4.50;;;;;;;23.79;49.03;100178.57;1716832;83;21306;-80
2023/07/16 02:01:23;;;;;;;7.70;3.87;;;;;;;24.05;48.42;100185.20;1729191;83;21303;-81
2023/07/16 02:04:29;;;;;;;15.93;4.58;;;;;;;24.15;48.15;100190.86;1729836;82;21919;-81
2023/07/16 02:07:35;;;;;;;17.07;4.67;;;;;;;24.12;48.12;100192.23;1742710;82;21345;-81
2023/07/16 02:10:40;;;;;;;15.38;4.55;;;;;;;23.81;48.88;100188.94;1742757;82;21321;-80
2023/07/16 02:13:47;;;;;;;10.93;4.40;;;;;;;23.48;49.75;100183.86;1746527;82;21348;-79
2023/07/16 02:16:54;;;;;;;12.28;4.30;;;;;;;23.78;49.09;100183.31;1747427;82;21341;-80
2023/07/16 02:20:01;;;;;;;10.50;4.70;;;;;;;23.79;49.17;100182.76;1747887;82;21218;-80
2023/07/16 02:23:06;;;;;;;15.85;4.05;;;;;;;23.97;48.96;100185.98;1747137;82;21356;-80
2023/07/16 02:26:12;;;;;;;11.00;4.90;;;;;;;24.26;48.45;100186.17;1747464;82;22596;-79
2023/07/16 02:29:18;;;;;;;9.90;3.85;;;;;;;24.43;48.04;100185.48;1747354;82;21325;-80
2023/07/16 02:32:24;;;;;;;9.83;3.62;;;;;;;24.67;47.78;100185.32;1747531;82;22625;-80
2023/07/16 02:35:30;;;;;;;7.40;3.45;;;;;;;25.10;46.88;100187.47;1747292;82;21306;-81
2023/07/16 02:38:36;;;;;;;8.48;4.33;;;;;;;25.15;46.78;100189.44;1743372;82;21317;-80
2023/07/16 02:41:41;;;;;;;13.93;4.17;;;;;;;25.37;46.35;100194.83;1726087;83;21318;-81
2023/07/16 02:44:47;;;;;;;9.05;3.90;;;;;;;25.47;46.09;100192.87;1724862;83;21386;-80
2023/07/16 02:47:54;;;;;;;7.12;3.30;;;;;;;25.66;45.69;100195.97;1725881;83;21354;-80
2023/07/16 02:51:02;;;;;;;8.65;3.33;;;;;;;26.00;44.93;100200.48;1725786;83;21345;-80
2023/07/16 02:54:07;;;;;;;7.10;3.27;;;;;;;26.31;44.21;100205.23;1725111;83;21901;-80
2023/07/16 02:57:13;;;;;;;8.48;3.50;;;;;;;26.46;43.66;100206.05;1725901;83;21350;-81
2023/07/16 03:00:19;;;;;;;9.33;3.67;;;;;;;26.73;43.04;100205.70;1725818;83;21318;-79
2023/07/16 03:03:25;;;;;;;9.18;3.52;;;;;;;26.86;42.65;100206.20;1724926;83;21342;-80
2023/07/16 03:06:33;;;;;;;13.98;4.00;;;;;;;27.07;42.18;100213.41;1725616;83;21330;-80
2023/07/16 03:09:39;;;;;;;7.37;3.65;;;;;;;27.20;41.97;100207.20;1725973;83;21294;-80
2023/07/16 03:12:47;;;;;;;6.72;3.40;;;;;;;27.36;41.49;100215.53;1724661;83;21184;-80
2023/07/16 03:15:55;;;;;;;5.72;3.42;;;;;;;27.54;41.25;100212.61;1725832;83;21318;-79
2023/07/16 03:19:01;;;;;;;8.50;3.47;;;;;;;27.56;41.15;100215.39;1726740;83;21318;-79
2023/07/16 03:22:07;;;;;;;6.47;4.03;;;;;;;27.50;41.40;100216.56;1725508;83;21342;-79
2023/07/16 03:25:14;;;;;;;10.78;4.20;;;;;;;27.72;40.82;100222.63;1725029;83;21314;-79
2023/07/16 03:28:20;;;;;;;5.78;3.75;;;;;;;27.92;40.58;100220.78;1725939;83;21313;-79
2023/07/16 03:31:28;;;;;;;13.13;4.30;;;;;;;27.93;40.73;100226.67;1726012;83;21346;-79
2023/07/16 03:34:35;;;;;;;10.03;4.30;;;;;;;28.14;40.35;100234.38;1724580;83;21777;-79
2023/07/16 03:37:41;;;;;;;8.75;4.35;;;;;;;28.02;40.77;100231.94;1724555;83;21365;-79
2023/07/16 03:40:47;;;;;;;9.90;4.47;;;;;;;28.13;40.71;100227.05;1726634;81;21979;-79
2023/07/16 03:43:53;;;;;;;10.60;3.87;;;;;;;28.19;40.59;100230.12;1726951;83;21314;-79
2023/07/16 03:47:00;;;;;;;10.90;4.75;;;;;;;28.56;40.08;100230.03;1725707;83;21191;-79
2023/07/16 03:50:05;;;;;;;6.33;4.12;;;;;;;28.86;39.43;100231.68;1725595;83;21310;-79
2023/07/16 03:53:11;;;;;;;9.50;5.30;;;;;;;28.86;39.42;100229.70;1697199;84;21344;-79
2023/07/16 03:56:16;;;;;;;8.90;5.65;;;;;;;28.86;39.44;100233.92;1698018;84;21317;-79
2023/07/16 03:59:23;;;;;;;14.10;5.12;;;;;;;28.72;39.70;100233.80;1697991;84;21354;-79
2023/07/16 04:02:28;;;;;;;13.25;6.15;;;;;;;28.77;39.66;100237.96;1697506;84;21337;-81
2023/07/16 04:05:36;;;;;;;15.08;5.72;;;;;;;28.88;39.79;100248.52;1700327;83;21865;-81
2023/07/16 04:08:42;;;;;;;15.48;5.85;;;;;;;28.90;39.70;100249.08;1729192;83;21344;-81
2023/07/16 04:11:47;;;;;;;16.65;7.30;;;;;;;28.99;39.55;100245.91;1730479;83;21923;-79
2023/07/16 04:14:54;;;;;;;13.48;7.45;;;;;;;29.23;38.83;100250.09;1729850;83;21212;-79
2023/07/16 04:18:00;;;;;;;14.38;7.53;;;;;;;28.94;39.10;100258.60;1730099;83;21321;-78
2023/07/16 04:21:05;;;;;;;23.10;8.95;;;;;;;29.06;39.02;100263.83;1728863;83;21300;-79
2023/07/16 04:24:11;;;;;;;24.23;7.95;;;;;;;29.11;38.95;100257.30;1729705;83;21332;-79
2023/07/16 04:27:17;;;;;;;18.92;7.17;;;;;;;29.24;38.90;100268.66;1730132;83;21344;-79
2023/07/16 04:30:23;;;;;;;20.15;8.00;;;;;;;29.19;38.58;100271.55;1730150;83;21305;-79
2023/07/16 04:33:28;;;;;;;15.50;9.00;;;;;;;29.26;38.83;100264.97;1730060;83;21356;-79
2023/07/16 04:36:34;;;;;;;21.07;9.03;;;;;;;29.63;38.00;100270.98;1726422;83;21380;-79
2023/07/16 04:39:39;;;;;;;21.07;7.90;;;;;;;29.96;37.40;100272.72;1725871;83;21373;-79
2023/07/16 04:42:45;;;;;;;21.12;8.73;;;;;;;30.00;37.29;100271.53;1725999;82;21350;-79
2023/07/16 04:45:53;;;;;;;25.95;9.00;;;;;;;30.01;36.98;100278.27;1725543;83;21368;-79
2023/07/16 04:48:59;;;;;;;26.85;9.43;;;;;;;30.09;36.82;100275.34;1726931;83;21320;-79
2023/07/16 04:52:05;;;;;;;31.73;11.50;;;;;;;30.33;36.24;100275.81;1729717;83;21325;-80
2023/07/16 04:55:13;;;;;;;29.80;13.30;;;;;;;30.46;36.16;100277.27;1728715;83;21344;-80
2023/07/16 04:58:20;;;;;;;27.48;15.30;;;;;;;30.55;35.93;100281.63;1730129;83;21328;-80
2023/07/16 05:01:26;;;;;;;33.00;17.50;;;;;;;30.46;36.33;100275.02;1730207;83;21320;-79
2023/07/16 05:04:32;;;;;;;34.35;16.93;;;;;;;30.63;35.94;100279.52;1729983;83;21317;-79
2023/07/16 05:07:39;;;;;;;30.35;15.68;;;;;;;30.68;35.55;100275.17;1729920;83;21321;-79
2023/07/16 05:10:45;;;;;;;34.85;15.30;;;;;;;30.90;35.56;100275.06;1730095;83;21325;-80
2023/07/16 05:13:51;;;;;;;32.85;13.08;;;;;;;30.78;35.74;100275.59;1730246;83;21225;-80
2023/07/16 05:16:56;;;;;;;32.80;14.23;;;;;;;30.92;35.87;100278.42;1729175;83;21359;-79
2023/07/16 05:20:04;;;;;;;26.75;13.20;;;;;;;31.02;35.32;100271.16;1730159;83;21884;-79
2023/07/16 05:23:10;;;;;;;22.73;11.10;;;;;;;31.04;35.78;100280.14;1730165;83;21317;-79
2023/07/16 05:26:15;;;;;;;34.60;12.55;;;;;;;31.36;35.29;100280.63;1729463;83;21328;-79
2023/07/16 05:29:20;;;;;;;20.30;8.15;;;;;;;31.50;34.72;100281.44;1730182;83;21313;-79
2023/07/16 05:32:29;;;;;;;15.60;7.85;;;;;;;31.68;33.88;100285.28;1728679;83;21348;-79
2023/07/16 05:35:34;;;;;;;17.35;8.98;;;;;;;31.84;33.18;100283.53;1730085;83;21375;-79
2023/07/16 05:38:38;;;;;;;21.52;9.23;;;;;;;31.86;33.27;100288.31;1728694;83;21313;-80
2023/07/16 05:41:46;;;;;;;21.33;9.28;;;;;;;31.98;33.40;100282.91;1730126;83;21336;-79
2023/07/16 05:44:53;;;;;;;15.63;7.87;;;;;;;31.99;33.94;100281.16;1730323;83;21321;-80
2023/07/16 05:47:59;;;;;;;16.55;6.72;;;;;;;32.17;33.81;100286.38;1709751;83;21310;-80
2023/07/16 05:51:04;;;;;;;17.05;6.05;;;;;;;32.31;32.22;100282.91;1729998;83;21353;-81
2023/07/16 05:54:11;;;;;;;11.22;5.92;;;;;;;32.20;32.37;100287.16;1729962;83;21317;-80
2023/07/16 05:57:16;;;;;;;11.12;6.20;;;;;;;32.08;31.52;100290.30;1729055;83;21358;-80
2023/07/16 06:00:24;;;;;;;12.78;6.08;;;;;;;32.05;32.05;100291.80;1730038;83;21336;-79
2023/07/16 06:03:30;;;;;;;10.72;6.25;;;;;;;32.17;31.83;100297.70;1728990;83;21360;-80
2023/07/16 06:06:37;;;;;;;14.18;6.20;;;;;;;32.36;32.13;100291.01;1729622;83;21312;-80
2023/07/16 06:09:35;;;;;;;11.45;5.28;;;;;;;32.43;32.40;100293.69;1729859;83;21360;-80
2023/07/16 06:12:41;;;;;;;10.58;4.35;;;;;;;32.45;31.33;100299.02;1730087;83;21329;-80
2023/07/16 06:15:47;;;;;;;13.03;4.75;;;;;;;32.67;30.46;100298.99;1730006;83;21320;-79
2023/07/16 06:18:54;;;;;;;12.18;5.50;;;;;;;32.66;30.31;100294.50;1730026;83;21324;-80
2023/07/16 06:22:01;;;;;;;10.30;5.33;;;;;;;32.63;30.41;100297.96;1730103;83;21316;-80
2023/07/16 06:25:06;;;;;;;8.63;4.83;;;;;;;32.65;30.09;100299.05;1729803;83;21360;-79
2023/07/16 06:28:13;;;;;;;16.82;5.83;;;;;;;32.73;30.44;100301.09;1728819;83;21356;-79
2023/07/16 06:31:18;;;;;;;11.50;5.20;;;;;;;32.91;30.41;100303.48;1730139;83;21951;-80
2023/07/16 06:34:24;;;;;;;13.48;5.92;;;;;;;32.94;29.72;100302.25;1728684;83;22389;-80
2023/07/16 06:37:29;;;;;;;17.10;5.60;;;;;;;33.06;30.05;100308.70;1728619;83;21368;-79
2023/07/16 06:40:36;;;;;;;12.55;5.83;;;;;;;33.10;29.56;100304.05;1729683;83;21395;-79
2023/07/16 06:43:42;;;;;;;19.15;6.50;;;;;;;33.06;28.73;100294.53;1706527;83;21369;-80
2023/07/16 06:46:48;;;;;;;13.70;6.62;;;;;;;33.13;29.01;100305.41;1721210;83;21318;-80
2023/07/16 06:49:53;;;;;;;23.10;6.75;;;;;;;33.16;28.95;100309.82;1721672;83;21328;-79
2023/07/16 06:52:58;;;;;;;18.02;6.92;;;;;;;33.10;28.79;100294.14;1721276;83;21333;-80
2023/07/16 06:56:04;;;;;;;13.93;7.12;;;;;;;33.22;29.11;100298.61;1720699;83;21334;-79
2023/07/16 06:59:09;;;;;;;20.90;6.65;;;;;;;33.39;28.85;100299.81;1721329;83;21908;-79
2023/07/16 07:02:15;;;;;;;17.82;6.10;;;;;;;33.32;27.71;100312.48;1721190;83;21350;-79
2023/07/16 07:05:22;;;;;;;18.15;6.28;;;;;;;33.48;27.45;100304.37;1719966;83;21310;-79
2023/07/16 07:08:29;;;;;;;20.52;6.03;;;;;;;33.66;27.75;100299.57;1723966;83;21880;-80
2023/07/16 07:11:35;;;;;;;14.70;3.17;;;;;;;33.59;27.76;100309.13;1725239;83;21338;-79
2023/07/16 07:14:41;;;;;;;7.90;3.25;;;;;;;33.23;25.91;100303.70;1725888;83;21858;-79
2023/07/16 07:17:48;;;;;;;9.10;3.37;;;;;;;33.10;26.63;100304.05;1725488;83;21349;-79
2023/07/16 07:20:55;;;;;;;9.10;3.55;;;;;;;33.09;26.36;100302.39;1726019;83;21996;-80
2023/07/16 07:24:01;;;;;;;11.68;3.12;;;;;;;33.19;26.32;100304.09;1726052;83;21298;-79
2023/07/16 07:27:06;;;;;;;7.45;2.60;;;;;;;33.32;25.71;100303.97;1724990;83;21354;-78
2023/07/16 07:30:13;;;;;;;10.63;3.10;;;;;;;33.38;25.41;100308.07;1726012;83;21310;-79
2023/07/16 07:33:19;;;;;;;7.15;2.22;;;;;;;33.50;25.37;100306.86;1725919;83;21326;-80
2023/07/16 07:36:26;;;;;;;11.75;1.90;;;;;;;33.48;25.16;100312.88;1725987;83;21313;-80
2023/07/16 07:39:32;;;;;;;4.00;1.52;;;;;;;33.44;24.93;100311.03;1725982;83;21893;-80
2023/07/16 07:42:37;;;;;;;5.92;1.85;;;;;;;33.55;25.49;100304.73;1724972;83;21322;-80
2023/07/16 07:45:43;;;;;;;6.05;1.25;;;;;;;33.46;25.27;100307.30;1737450;82;21321;-80
2023/07/16 07:48:48;;;;;;;4.70;1.32;;;;;;;33.44;24.97;100316.70;1746725;82;21844;-80
2023/07/16 07:51:55;;;;;;;4.67;1.20;;;;;;;33.48;24.76;100316.30;1747338;82;21314;-80
2023/07/16 07:55:00;;;;;;;3.58;0.72;;;;;;;33.54;24.25;100316.38;1745988;82;21321;-80
2023/07/16 07:58:06;;;;;;;5.47;1.02;;;;;;;33.50;24.10;100312.53;1746859;82;21348;-79
2023/07/16 08:01:17;;;;;;;12.63;1.30;;;;;;;33.29;25.25;100311.70;1747510;82;21332;-80
2023/07/16 08:04:23;;;;;;;7.28;1.70;;;;;;;33.49;25.11;100303.78;1745222;82;21329;-79
2023/07/16 08:07:29;;;;;;;4.67;1.17;;;;;;;33.64;24.61;100304.72;1746953;82;21907;-79
2023/07/16 08:10:34;;;;;;;3.75;1.17;;;;;;;33.50;24.83;100305.45;1745984;82;21317;-79
2023/07/16 08:13:40;;;;;;;4.28;1.00;;;;;;;33.51;25.27;100305.72;1747384;82;21317;-80
2023/07/16 08:16:45;;;;;;;10.68;1.15;;;;;;;33.44;24.77;100299.69;1747659;82;21888;-80
2023/07/16 08:19:51;;;;;;;2.87;1.05;;;;;;;33.63;25.56;100305.89;1747809;82;21924;-79
2023/07/16 08:22:58;;;;;;;4.30;1.10;;;;;;;33.64;24.20;100299.05;1747394;82;21349;-79
2023/07/16 08:26:05;;;;;;;6.67;1.10;;;;;;;33.55;24.79;100311.83;1746046;82;21867;-79
2023/07/16 08:29:04;;;;;;;2.30;0.93;;;;;;;33.82;24.96;100290.81;1746021;82;21313;-80
2023/07/16 08:32:11;;;;;;;7.22;1.55;;;;;;;33.72;24.06;100313.00;1746124;82;21345;-80
2023/07/16 08:35:16;;;;;;;3.50;1.15;;;;;;;33.84;24.03;100304.69;1747525;82;21313;-80
2023/07/16 08:38:22;;;;;;;5.85;1.37;;;;;;;33.94;24.14;100296.43;1747304;82;21352;-79
2023/07/16 08:41:28;;;;;;;2.05;1.00;;;;;;;33.95;22.60;100299.55;1747628;82;21301;-79
2023/07/16 08:44:33;;;;;;;1.92;0.93;;;;;;;33.90;22.73;100287.74;1746004;82;21336;-79
2023/07/16 08:47:39;;;;;;;3.60;1.22;;;;;;;33.98;22.30;100288.95;1713729;82;21336;-79
2023/07/16 08:50:45;;;;;;;5.20;1.02;;;;;;;34.20;23.32;100294.43;1737236;82;21880;-79
2023/07/16 08:53:50;;;;;;;6.58;1.20;;;;;;;34.16;23.06;100292.04;1737139;82;21889;-79
2023/07/16 08:56:58;;;;;;;5.12;1.50;;;;;;;33.96;23.31;100290.69;1737073;82;21345;-79
2023/07/16 09:00:03;;;;;;;6.42;1.30;;;;;;;34.06;23.81;100287.51;1736254;82;21346;-79
2023/07/16 09:03:08;;;;;;;1.98;1.15;;;;;;;34.17;23.67;100292.28;1736376;82;21904;-79
2023/07/16 09:06:14;;;;;;;4.15;1.10;;;;;;;34.15;22.88;100290.34;1737162;82;21310;-80
2023/07/16 09:09:30;;;;;;;8.10;1.37;;;;;;;34.11;21.80;100300.70;1737323;82;21309;-80
2023/07/16 09:12:36;;;;;;;5.72;1.40;;;;;;;34.08;23.41;100294.29;1735795;82;21341;-79
2023/07/16 09:15:44;;;;;;;6.92;1.27;;;;;;;33.99;23.82;100290.63;1737281;82;21876;-79
2023/07/16 09:18:45;;;;;;;7.43;1.50;;;;;;;34.02;23.64;100284.29;1737393;82;21315;-80
2023/07/16 09:21:39;;;;;;;4.42;1.32;;;;;;;34.13;24.25;100302.63;1737245;82;21848;-80
2023/07/16 09:24:46;;;;;;;5.58;1.92;;;;;;;34.09;24.19;100278.92;1737778;82;21306;-80
2023/07/16 09:27:54;;;;;;;2.95;1.30;;;;;;;33.93;23.52;100278.58;1716540;82;21337;-80
2023/07/16 09:31:00;;;;;;;2.95;1.30;;;;;;;34.04;23.79;100287.02;1735983;82;21317;-80
2023/07/16 09:34:06;;;;;;;7.03;1.20;;;;;;;34.28;24.10;100277.98;1737170;82;21321;-80
2023/07/16 09:37:12;;;;;;;12.28;1.35;;;;;;;34.35;23.50;100274.66;1737247;82;21326;-80
2023/07/16 09:40:18;;;;;;;7.15;1.20;;;;;;;34.49;22.97;100287.23;1736378;82;21406;-80
2023/07/16 09:43:23;;;;;;;3.90;1.20;;;;;;;34.44;23.43;100270.35;1735952;82;21348;-80
2023/07/16 09:46:29;;;;;;;3.45;1.02;;;;;;;34.52;23.49;100275.22;1735905;82;21303;-80
2023/07/16 09:49:38;;;;;;;8.48;1.40;;;;;;;34.79;22.23;100283.91;1735897;82;21353;-80
2023/07/16 09:52:43;;;;;;;3.87;1.00;;;;;;;34.79;22.89;100274.80;1721310;83;21294;-80
2023/07/16 09:55:49;;;;;;;2.83;1.27;;;;;;;34.44;22.08;100280.29;1721356;83;22660;-80
2023/07/16 09:58:55;;;;;;;6.17;1.10;;;;;;;34.56;23.03;100286.15;1720901;83;21830;-80
2023/07/16 10:02:03;;;;;;;5.33;1.10;;;;;;;34.53;23.19;100280.55;1721224;83;21341;-80
2023/07/16 10:05:23;;;;;;;4.92;1.10;;;;;;;34.62;22.61;100274.02;1721287;83;21334;-80
2023/07/16 10:08:34;;;;;;;5.97;0.88;;;;;;;34.58;21.55;100275.27;1718980;83;21362;-80
2023/07/16 10:11:35;;;;;;;2.20;0.88;;;;;;;34.58;21.57;100269.59;1720175;83;21334;-80
2023/07/16 10:14:50;;;;;;;2.55;0.82;;;;;;;34.65;21.28;100274.77;1696977;83;22643;-80
2023/07/16 10:18:01;;;;;;;6.90;1.20;;;;;;;34.46;21.58;100272.31;1700159;83;21254;-80
2023/07/16 10:21:22;;;;;;;10.70;1.10;;;;;;;34.05;22.19;100271.66;1719851;83;21374;-79
2023/07/16 10:24:27;;;;;;;11.45;1.27;;;;;;;34.14;21.76;100258.06;1696797;83;21333;-80
2023/07/16 10:27:38;;;;;;;3.85;0.98;;;;;;;34.21;21.42;100265.49;1720821;83;21345;-79
2023/07/16 10:30:45;;;;;;;5.75;1.17;;;;;;;34.12;20.47;100271.77;1719471;83;21357;-80
2023/07/16 10:33:52;;;;;;;5.50;1.25;;;;;;;34.21;20.75;100279.69;1720859;83;21310;-79
2023/07/16 10:36:58;;;;;;;3.75;0.90;;;;;;;34.52;21.49;100268.12;1721163;83;21363;-79
2023/07/16 10:40:06;;;;;;;7.20;1.55;;;;;;;34.80;21.07;100270.78;1721189;83;21306;-79
2023/07/16 10:43:11;;;;;;;3.92;1.02;;;;;;;34.84;21.21;100267.51;1721502;83;21912;-80
2023/07/16 10:46:17;;;;;;;2.85;1.00;;;;;;;34.82;20.47;100275.55;1721172;83;21322;-79
2023/07/16 10:49:23;;;;;;;2.27;0.98;;;;;;;34.96;20.74;100258.88;1721334;83;21314;-79
2023/07/16 10:52:31;;;;;;;3.47;1.20;;;;;;;35.07;20.68;100264.44;1725645;81;21350;-80
2023/07/16 10:55:37;;;;;;;1.47;0.90;;;;;;;35.18;20.19;100275.66;1726960;83;21318;-79
2023/07/16 10:58:47;;;;;;;5.22;1.30;;;;;;;35.05;20.06;100263.93;1727123;83;21354;-79
2023/07/16 11:01:47;;;;;;;8.50;1.52;;;;;;;35.04;20.14;100256.00;1725966;83;21366;-79
2023/07/16 11:04:54;;;;;;;7.20;1.40;;;;;;;35.17;21.00;100247.59;1726783;83;21309;-80
2023/07/16 11:08:00;;;;;;;2.77;1.10;;;;;;;35.11;21.05;100261.75;1725436;83;21876;-80
2023/07/16 11:11:05;;;;;;;2.50;1.00;;;;;;;35.06;20.94;100264.20;1704550;83;21294;-80
2023/07/16 11:14:15;;;;;;;8.05;1.52;;;;;;;35.04;21.75;100252.33;1726998;83;21330;-80
2023/07/16 11:17:26;;;;;;;3.20;1.60;;;;;;;35.14;21.64;100260.45;1726890;83;21304;-79
2023/07/16 11:20:29;;;;;;;2.92;1.37;;;;;;;35.12;21.94;100263.41;1726950;83;21326;-80
2023/07/16 11:23:35;;;;;;;2.52;1.22;;;;;;;35.12;22.10;100256.31;1705190;83;21861;-79
2023/07/16 11:26:39;;;;;;;1.57;0.98;;;;;;;35.22;22.05;100261.00;1727530;83;21318;-79
2023/07/16 11:29:45;;;;;;;4.95;1.15;;;;;;;35.30;21.35;100257.29;1726845;83;21314;-79
2023/07/16 11:32:53;;;;;;;3.27;1.15;;;;;;;35.30;21.58;100260.13;1725557;83;21317;-79
2023/07/16 11:35:59;;;;;;;3.67;1.45;;;;;;;35.44;21.36;100268.41;1726967;83;21688;-80
2023/07/16 11:39:05;;;;;;;5.67;1.92;;;;;;;35.51;20.73;100265.04;1687922;83;21336;-79
2023/07/16 11:42:12;;;;;;;7.20;2.30;;;;;;;35.27;21.56;100262.23;1726230;83;21909;-79
2023/07/16 11:45:33;;;;;;;9.60;2.15;;;;;;;35.28;21.59;100263.89;1726765;83;21381;-80
2023/07/16 11:48:39;;;;;;;6.05;1.70;;;;;;;35.31;21.91;100259.54;1726954;83;21341;-79
2023/07/16 11:51:46;;;;;;;4.35;1.50;;;;;;;35.26;21.33;100263.41;1725750;82;21301;-79
2023/07/16 11:54:51;;;;;;;3.92;1.55;;;;;;;35.23;21.33;100262.67;1721335;83;21349;-80
2023/07/16 11:57:59;;;;;;;3.80;1.65;;;;;;;35.22;21.08;100275.22;1722009;82;21239;-79
2023/07/16 12:01:05;;;;;;;3.60;1.55;;;;;;;35.16;20.97;100260.14;1720841;83;21335;-79
2023/07/16 12:04:12;;;;;;;8.23;1.72;;;;;;;35.16;21.65;100248.17;1721253;83;21310;-80
2023/07/16 12:07:17;;;;;;;13.08;1.75;;;;;;;35.21;21.47;100256.50;1721291;83;21291;-80
2023/07/16 12:10:35;;;;;;;6.65;1.65;;;;;;;35.36;21.36;100253.66;1721341;83;21306;-79
2023/07/16 12:13:42;;;;;;;4.78;2.50;;;;;;;35.45;22.16;100254.43;1721395;83;21259;-80
2023/07/16 12:16:47;;;;;;;10.48;2.27;;;;;;;35.37;21.70;100249.63;1720681;82;21341;-80
2023/07/16 12:19:54;;;;;;;8.63;2.25;;;;;;;35.42;21.21;100245.75;1721234;83;21314;-79
2023/07/16 12:22:59;;;;;;;4.53;2.10;;;;;;;35.53;21.77;100248.48;1720436;83;21337;-80
2023/07/16 12:26:08;;;;;;;7.12;2.45;;;;;;;35.61;21.72;100237.61;1720009;83;21321;-79
2023/07/16 12:29:08;;;;;;;4.60;2.05;;;;;;;35.50;21.61;100251.41;1720832;83;21369;-80
2023/07/16 12:32:14;;;;;;;8.45;2.00;;;;;;;35.71;21.80;100255.70;1719480;83;21365;-80
2023/07/16 12:35:20;;;;;;;8.20;1.92;;;;;;;35.84;21.61;100264.53;1720341;83;21385;-80
2023/07/16 12:38:26;;;;;;;8.00;2.67;;;;;;;35.77;21.85;100252.89;1720412;83;21305;-80
2023/07/16 12:41:33;;;;;;;3.60;1.67;;;;;;;35.65;21.20;100248.54;1724716;83;21317;-80
2023/07/16 12:44:39;;;;;;;3.62;1.62;;;;;;;35.72;21.75;100245.98;1747470;82;21349;-80
2023/07/16 12:47:38;;;;;;;5.00;2.10;;;;;;;35.65;21.56;100251.98;1715017;83;21340;-79
2023/07/16 12:50:45;;;;;;;5.67;2.00;;;;;;;35.53;21.68;100255.59;1747535;82;22021;-79
2023/07/16 12:53:51;;;;;;;4.83;2.00;;;;;;;35.47;21.68;100258.38;1715745;81;21311;-79
2023/07/16 12:56:59;;;;;;;5.55;2.30;;;;;;;35.30;21.65;100250.18;1690940;85;21311;-79
2023/07/16 13:00:05;;;;;;;12.45;2.10;;;;;;;35.45;21.98;100244.48;1733677;83;21917;-79
2023/07/16 13:03:11;;;;;;;7.30;1.90;;;;;;;35.45;21.98;100244.48;1732708;83;21378;-80
2023/07/16 13:06:10;;;;;;;14.05;2.02;;;;;;;35.46;22.16;100253.28;1732372;83;21318;-80
2023/07/16 13:09:17;;;;;;;5.12;2.00;;;;;;;35.15;21.64;100256.47;1732252;83;21311;-79
2023/07/16 13:12:22;;;;;;;12.25;2.70;;;;;;;34.95;21.50;100248.66;1732264;83;21298;-80
2023/07/16 13:15:27;;;;;;;15.78;2.15;;;;;;;34.85;21.58;100247.03;1733744;83;21335;-79
2023/07/16 13:18:33;;;;;;;8.60;1.95;;;;;;;34.67;21.07;100242.00;1732421;82;21330;-79
2023/07/16 13:21:38;;;;;;;3.55;1.67;;;;;;;34.78;20.80;100246.16;1732429;83;21902;-80
2023/07/16 13:24:45;;;;;;;3.92;1.40;;;;;;;34.85;21.00;100244.19;1732307;83;21869;-79
2023/07/16 13:27:52;;;;;;;6.53;1.80;;;;;;;34.95;21.70;100245.23;1734399;83;21881;-79
2023/07/16 13:30:59;;;;;;;5.22;1.80;;;;;;;34.89;21.51;100247.19;1733693;83;21644;-79
2023/07/16 13:34:05;;;;;;;7.30;1.85;;;;;;;34.78;21.61;100245.33;1732739;83;21318;-79
2023/07/16 13:37:22;;;;;;;3.90;1.72;;;;;;;34.77;21.63;100247.34;1732199;83;21314;-81
2023/07/16 13:40:27;;;;;;;3.98;1.47;;;;;;;34.81;21.53;100244.03;1733893;83;21335;-81
2023/07/16 13:43:33;;;;;;;6.72;1.67;;;;;;;34.86;21.34;100242.18;1733810;83;21941;-80
2023/07/16 13:46:40;;;;;;;4.90;1.95;;;;;;;34.95;21.12;100240.13;1733421;83;21322;-80
2023/07/16 13:49:47;;;;;;;12.55;4.22;;;;;;;34.84;21.52;100233.42;1733462;83;21338;-80
2023/07/16 13:52:53;;;;;;;8.48;2.08;;;;;;;34.80;21.58;100245.22;1733148;83;21314;-80
2023/07/16 13:55:59;;;;;;;5.40;1.98;;;;;;;34.61;21.79;100246.20;1739051;82;21357;-79
2023/07/16 13:59:06;;;;;;;2.33;1.42;;;;;;;34.57;22.00;100240.95;1746506;82;21345;-79
2023/07/16 14:02:11;;;;;;;11.97;1.80;;;;;;;34.48;21.73;100243.81;1728433;83;21386;-79
2023/07/16 14:05:17;;;;;;;4.12;1.80;;;;;;;34.45;21.83;100239.39;1727377;83;21906;-80
2023/07/16 14:08:23;;;;;;;8.43;1.75;;;;;;;34.51;22.14;100240.90;1728947;83;21303;-80
2023/07/16 14:11:30;;;;;;;7.22;1.75;;;;;;;34.50;21.97;100240.66;1729721;83;21271;-79
2023/07/16 14:14:36;;;;;;;5.42;1.80;;;;;;;34.64;22.31;100244.13;1727956;83;21857;-79
2023/07/16 14:17:41;;;;;;;4.00;1.40;;;;;;;34.70;22.09;100241.92;1728663;83;21383;-80
2023/07/16 14:20:46;;;;;;;4.03;1.30;;;;;;;34.70;21.85;100242.75;1729029;83;21299;-80
2023/07/16 14:23:52;;;;;;;4.78;1.60;;;;;;;34.89;21.89;100245.77;1728488;83;21342;-80